Time;durP1;ratioP1;P1;durP2;ratioP2;P2;SDS_P1;SDS_P2;PMS_P1;PMS_P2;Temp;Humidity;BMP_temperature;BMP_pressure;BME280_temperature;BME280_humidity;BME280_pressure;Samples;Min_cycle;Max_cycle;Signal;HPM_P1;HPM_P2
2022/02/20 00:01:58;;;;;;;1999.90;999.90;;;;;;;6.09;69.72;100366.94;15611419;28;20112;-61
2022/02/20 00:09:32;;;;;;;1999.90;999.90;;;;;;;6.17;69.67;100338.50;15635886;28;20072;-60
2022/02/20 00:17:04;;;;;;;1999.90;999.90;;;;;;;5.86;71.08;100332.00;15672160;28;20045;-62
2022/02/20 00:24:38;;;;;;;1999.90;999.90;;;;;;;5.75;70.96;100317.56;15672006;28;20535;-60
2022/02/20 00:32:10;;;;;;;;;;;;;;;5.79;71.65;100315.78;15672052;28;20136;-62
2022/02/20 00:39:44;;;;;;;1999.90;999.90;;;;;;;5.95;71.41;100300.53;15672197;28;19935;-59
2022/02/20 00:47:16;;;;;;;;;;;;;;;5.71;72.67;100286.88;15670395;28;20413;-61
2022/02/20 00:54:50;;;;;;;1999.90;999.90;;;;;;;5.56;74.07;100281.69;15594765;28;19927;-60
2022/02/20 01:02:22;;;;;;;1999.90;999.90;;;;;;;5.22;74.81;100263.59;15569352;28;20053;-61
2022/02/20 01:09:58;;;;;;;1999.90;999.90;;;;;;;5.23;76.49;100236.75;15602884;28;20099;-61
2022/02/20 01:17:30;;;;;;;;;;;;;;;5.03;77.10;100229.72;15668875;28;20045;-61
2022/02/20 01:25:04;;;;;;;1160.20;385.60;;;;;;;4.93;78.28;100208.59;15668665;28;20016;-61
2022/02/20 01:32:37;;;;;;;1999.90;999.90;;;;;;;4.99;78.57;100178.88;15669754;28;20505;-61
2022/02/20 01:40:12;;;;;;;1999.90;999.90;;;;;;;4.64;79.24;100161.91;15681059;28;20127;-60
2022/02/20 01:47:45;;;;;;;722.10;334.70;;;;;;;4.89;79.15;100148.69;15618441;28;20077;-60
2022/02/20 01:55:19;;;;;;;566.75;381.65;;;;;;;4.74;79.79;100127.72;15589491;28;20104;-58
2022/02/20 02:03:16;;;;;;;1209.72;459.23;;;;;;;4.50;80.69;100108.63;15613373;28;20061;-60
2022/02/20 02:11:03;;;;;;;1110.35;639.92;;;;;;;4.31;81.50;100099.59;15618635;28;20082;-58
2022/02/20 02:18:56;;;;;;;517.22;276.52;;;;;;;4.28;80.92;100075.38;15638545;28;20529;-60
2022/02/20 02:26:50;;;;;;;480.80;327.60;;;;;;;4.26;82.25;100070.13;15634774;28;20053;-60
2022/02/20 02:34:42;;;;;;;1237.50;622.43;;;;;;;4.25;82.02;100051.09;15643853;28;20045;-60
2022/02/20 02:42:16;;;;;;;1695.50;843.45;;;;;;;4.05;82.89;100042.09;15658988;28;20049;-61
2022/02/20 02:49:50;;;;;;;1141.05;570.85;;;;;;;4.35;82.02;100023.28;15653909;28;20549;-60
2022/02/20 02:57:24;;;;;;;1058.40;684.37;;;;;;;4.58;81.40;100022.22;15611078;28;20034;-60
2022/02/20 03:05:00;;;;;;;792.00;613.47;;;;;;;4.63;81.13;100011.06;15552881;28;20072;-62
2022/02/20 03:12:35;;;;;;;789.95;631.75;;;;;;;4.57;82.30;100004.00;15610088;28;20540;-60
2022/02/20 03:20:09;;;;;;;1234.00;697.78;;;;;;;4.54;82.24;100001.06;15663854;28;20600;-61
2022/02/20 03:27:47;;;;;;;767.72;488.58;;;;;;;4.56;81.86;100007.88;15617229;28;20136;-61
2022/02/20 03:35:28;;;;;;;1602.73;871.87;;;;;;;4.57;82.11;100014.22;15571227;28;20057;-60
2022/02/20 03:43:03;;;;;;;927.83;668.83;;;;;;;4.89;82.03;100021.53;15558811;28;20030;-61
2022/02/20 03:50:59;;;;;;;991.28;549.38;;;;;;;4.66;82.34;100025.38;15550843;28;20069;-58
2022/02/20 03:58:33;;;;;;;567.15;434.85;;;;;;;5.17;81.15;100008.41;15594398;28;20050;-60
2022/02/20 04:06:08;;;;;;;752.38;543.40;;;;;;;5.35;80.15;100014.91;15631391;28;20046;-60
2022/02/20 04:13:47;;;;;;;524.05;467.02;;;;;;;5.13;81.54;100010.19;15569071;28;20524;-59
2022/02/20 04:21:25;;;;;;;1621.63;843.15;;;;;;;5.22;81.62;100022.97;15624935;28;20507;-60
2022/02/20 04:29:07;;;;;;;925.05;632.85;;;;;;;5.32;81.84;100027.41;15595604;28;20487;-60
2022/02/20 04:36:40;;;;;;;554.50;506.77;;;;;;;5.46;81.13;100035.66;15539296;28;20104;-59
2022/02/20 04:44:16;;;;;;;517.72;477.52;;;;;;;5.51;80.79;100046.56;15595868;28;20044;-59
2022/02/20 04:51:49;;;;;;;650.08;530.22;;;;;;;5.10;82.81;100057.81;15624571;28;20080;-59
2022/02/20 04:59:37;;;;;;;869.00;676.30;;;;;;;5.34;81.89;100072.19;15615812;28;20067;-60
2022/02/20 05:07:10;;;;;;;532.08;482.75;;;;;;;5.28;82.09;100073.41;15625431;28;20059;-60
2022/02/20 05:14:47;;;;;;;592.42;534.30;;;;;;;5.39;82.38;100069.28;15588780;28;20095;-59
2022/02/20 05:22:27;;;;;;;414.30;382.02;;;;;;;5.62;81.22;100074.81;15641136;28;20072;-59
2022/02/20 05:30:05;;;;;;;550.80;507.35;;;;;;;5.48;81.80;100088.72;15636649;28;20050;-60
2022/02/20 05:37:43;;;;;;;994.50;680.88;;;;;;;5.24;83.53;100090.97;15558807;28;20119;-59
2022/02/20 05:45:34;;;;;;;554.22;499.20;;;;;;;5.70;82.86;100115.56;15581361;28;20034;-60
2022/02/20 05:53:18;;;;;;;385.30;348.67;;;;;;;5.50;82.82;100114.13;15537271;28;20077;-63
2022/02/20 06:00:53;;;;;;;489.17;443.52;;;;;;;5.75;81.80;100135.66;15562623;28;20034;-61
2022/02/20 06:08:25;;;;;;;386.85;355.13;;;;;;;5.75;80.99;100149.50;15577406;28;20072;-61
2022/02/20 06:16:19;;;;;;;269.23;245.93;;;;;;;5.61;81.05;100157.03;15608812;28;20049;-60
2022/02/20 06:24:05;;;;;;;309.45;284.10;;;;;;;5.59;81.38;100169.53;15592074;28;20049;-58
2022/02/20 06:31:52;;;;;;;274.25;253.20;;;;;;;5.68;80.58;100193.41;15600875;28;20040;-58
2022/02/20 06:39:25;;;;;;;;;;;;;;;5.69;80.37;100211.63;15601480;28;20041;-59
2022/02/20 06:46:59;;;;;;;288.40;266.67;;;;;;;5.83;80.54;100224.59;15649140;28;20294;-58
2022/02/20 06:54:34;;;;;;;283.33;260.52;;;;;;;5.84;80.22;100242.88;15623017;28;20054;-61
2022/02/20 07:02:27;;;;;;;337.65;312.20;;;;;;;6.17;78.68;100249.84;15574714;28;20045;-59
2022/02/20 07:09:59;;;;;;;;;;;;;;;6.19;78.34;100272.50;15605943;28;20107;-58
2022/02/20 07:17:33;;;;;;;222.40;208.40;;;;;;;6.13;78.44;100297.88;15601473;28;19968;-62
2022/02/20 07:25:06;;;;;;;260.98;243.75;;;;;;;6.20;77.13;100310.16;15597348;28;20041;-61
2022/02/20 07:32:43;;;;;;;250.93;235.25;;;;;;;6.43;76.16;100311.00;15593405;28;20510;-59
2022/02/20 07:40:16;;;;;;;310.80;290.13;;;;;;;6.42;76.13;100333.47;15606661;28;20045;-56
2022/02/20 07:47:52;;;;;;;258.27;240.77;;;;;;;6.27;76.63;100337.44;15621133;28;20048;-60
2022/02/20 07:55:27;;;;;;;378.40;347.35;;;;;;;5.89;77.12;100325.81;15637673;28;20053;-59
2022/02/20 08:03:02;;;;;;;339.35;311.25;;;;;;;6.31;77.16;100346.75;15627510;28;20049;-60
2022/02/20 08:10:35;;;;;;;226.75;211.57;;;;;;;6.64;76.35;100345.38;15587343;28;20096;-60
2022/02/20 08:18:09;;;;;;;459.85;420.27;;;;;;;7.50;72.19;100372.78;15558469;28;20410;-59
2022/02/20 08:25:42;;;;;;;295.83;274.83;;;;;;;7.56;71.44;100376.22;15611248;28;20050;-59
2022/02/20 08:33:17;;;;;;;249.32;229.55;;;;;;;7.23;70.83;100373.00;15618174;28;20057;-61
2022/02/20 08:40:50;;;;;;;;;;;;;;;8.21;68.28;100382.91;15600749;28;20029;-59
2022/02/20 08:48:24;;;;;;;195.15;181.45;;;;;;;9.21;66.99;100388.28;15592581;28;19921;-61
2022/02/20 08:55:57;;;;;;;231.82;213.73;;;;;;;8.39;67.96;100409.63;15565881;28;20053;-60
2022/02/20 09:03:32;;;;;;;358.60;330.30;;;;;;;8.30;67.78;100394.88;15561377;28;20630;-60
2022/02/20 09:11:05;;;;;;;459.45;408.77;;;;;;;7.27;70.04;100407.28;15558092;28;20037;-60
2022/02/20 09:18:40;;;;;;;473.27;428.77;;;;;;;7.24;70.35;100399.59;15609433;28;20041;-60
2022/02/20 09:26:13;;;;;;;169.48;158.50;;;;;;;7.50;69.69;100395.00;15587863;28;20046;-62
2022/02/20 09:33:49;;;;;;;117.95;110.60;;;;;;;7.67;69.97;100387.88;15635986;28;20053;-61
2022/02/20 09:41:25;;;;;;;238.95;224.10;;;;;;;7.77;69.50;100379.22;15582515;28;20053;-61
2022/02/20 09:49:00;;;;;;;333.30;306.00;;;;;;;7.72;70.10;100385.78;15574846;28;20041;-61
2022/02/20 09:56:32;;;;;;;258.48;238.10;;;;;;;8.15;68.52;100384.22;15613190;28;20113;-62
2022/02/20 10:04:13;;;;;;;207.07;194.13;;;;;;;8.02;69.40;100380.44;15619710;28;20151;-61
2022/02/20 10:11:45;;;;;;;202.30;189.77;;;;;;;8.16;69.54;100378.34;15666494;28;20639;-59
2022/02/20 10:19:25;;;;;;;231.73;214.57;;;;;;;8.24;69.54;100360.06;15620274;28;20047;-58
2022/02/20 10:27:19;;;;;;;164.23;154.43;;;;;;;8.71;68.81;100366.59;15617257;28;20168;-59
2022/02/20 10:35:16;;;;;;;217.75;201.90;;;;;;;8.93;67.88;100346.09;15604302;28;20132;-60
2022/02/20 10:42:49;;;;;;;264.38;242.93;;;;;;;8.87;67.56;100325.19;15615553;28;20041;-60
2022/02/20 10:50:24;;;;;;;328.70;303.40;;;;;;;8.94;68.53;100306.00;15597893;28;20079;-60
2022/02/20 10:57:57;;;;;;;331.13;306.52;;;;;;;8.73;69.07;100288.38;15615170;28;20041;-60
2022/02/20 11:05:32;;;;;;;227.23;210.80;;;;;;;8.31;71.38;100269.44;15609933;28;20041;-58
2022/02/20 11:13:06;;;;;;;311.50;279.58;;;;;;;8.29;71.64;100237.56;15632377;28;20095;-61
2022/02/20 11:20:43;;;;;;;286.07;263.70;;;;;;;8.14;73.69;100229.75;15583617;28;20042;-61
2022/02/20 11:28:16;;;;;;;487.23;445.70;;;;;;;7.71;75.39;100223.06;15614812;28;20061;-60
2022/02/20 11:35:52;;;;;;;457.30;408.80;;;;;;;7.57;77.13;100210.44;15606181;28;20037;-61
2022/02/20 11:43:39;;;;;;;507.20;455.83;;;;;;;7.34;77.57;100204.22;15615267;28;20141;-60
2022/02/20 11:51:17;;;;;;;386.30;353.10;;;;;;;7.14;77.29;100181.47;15599254;28;20494;-61
2022/02/20 11:59:10;;;;;;;996.15;543.38;;;;;;;6.73;77.84;100161.63;15608382;28;20220;-61
2022/02/20 12:06:46;;;;;;;975.22;678.08;;;;;;;6.44;79.97;100140.78;15558090;28;20053;-62
2022/02/20 12:14:22;;;;;;;647.88;582.45;;;;;;;6.57;80.55;100112.16;15622531;28;20148;-61
2022/02/20 12:22:07;;;;;;;598.17;545.78;;;;;;;6.80;80.61;100101.78;15581205;28;20298;-61
2022/02/20 12:29:46;;;;;;;959.42;717.53;;;;;;;6.53;81.42;100079.84;15631957;28;20039;-59
2022/02/20 12:37:24;;;;;;;542.30;493.90;;;;;;;6.89;81.02;100055.47;15619017;28;20084;-58
2022/02/20 12:45:10;;;;;;;1139.53;752.65;;;;;;;6.72;82.30;100038.81;15595827;28;20034;-60
2022/02/20 12:52:45;;;;;;;665.47;596.03;;;;;;;6.89;82.56;100016.66;15598374;28;20030;-61
2022/02/20 13:00:21;;;;;;;615.03;554.03;;;;;;;6.97;82.53;99998.34;15596820;28;20075;-62
2022/02/20 13:07:58;;;;;;;593.20;538.78;;;;;;;7.12;82.90;99974.88;15601943;28;20072;-60
2022/02/20 13:15:37;;;;;;;819.55;703.28;;;;;;;7.17;83.36;99952.50;15586485;28;20072;-59
2022/02/20 13:23:24;;;;;;;1117.40;697.35;;;;;;;7.18;83.68;99918.88;15610256;28;20128;-61
2022/02/20 13:30:59;;;;;;;1832.03;802.88;;;;;;;7.16;85.20;99907.28;15611853;28;20044;-61
2022/02/20 13:38:34;;;;;;;1348.05;691.90;;;;;;;7.47;84.59;99895.13;15617441;28;20132;-60
2022/02/20 13:46:07;;;;;;;1446.72;739.00;;;;;;;7.53;84.94;99883.50;15613654;28;20037;-61
2022/02/20 13:53:44;;;;;;;1178.23;567.03;;;;;;;7.76;85.15;99853.50;15617416;28;20302;-61
2022/02/20 14:01:19;;;;;;;766.13;253.77;;;;;;;7.59;87.32;99800.84;15605271;28;20053;-60
2022/02/20 14:08:55;;;;;;;1328.45;775.63;;;;;;;7.99;86.59;99829.03;15609090;28;20045;-62
2022/02/20 14:16:29;;;;;;;788.70;680.88;;;;;;;8.23;86.50;99810.88;15625550;28;20037;-62
2022/02/20 14:24:06;;;;;;;707.95;591.55;;;;;;;8.48;86.15;99786.81;15621282;28;20128;-63
2022/02/20 14:31:41;;;;;;;1193.28;698.97;;;;;;;8.45;86.71;99771.66;15597921;28;20046;-62
2022/02/20 14:39:17;;;;;;;699.57;634.13;;;;;;;8.81;85.63;99753.44;15607893;28;20069;-63
2022/02/20 14:46:50;;;;;;;1297.32;741.55;;;;;;;8.70;86.42;99732.78;15593574;28;20092;-62
2022/02/20 14:54:25;;;;;;;675.42;618.60;;;;;;;9.18;85.02;99738.41;15603243;28;20402;-62
2022/02/20 15:01:58;;;;;;;1658.97;682.45;;;;;;;8.75;86.12;99707.50;15589778;28;20042;-63
2022/02/20 15:09:34;;;;;;;644.60;569.33;;;;;;;9.20;85.22;99690.75;15594938;28;20045;-61
2022/02/20 15:17:09;;;;;;;550.22;492.10;;;;;;;9.45;84.62;99681.19;15637061;28;20045;-63
2022/02/20 15:24:44;;;;;;;1431.13;856.35;;;;;;;9.42;84.92;99675.53;15616799;28;20136;-61
2022/02/20 15:32:17;;;;;;;1162.75;776.33;;;;;;;9.48;83.92;99666.59;15609629;28;20041;-62
2022/02/20 15:39:51;;;;;;;1706.23;936.53;;;;;;;9.70;83.47;99654.13;15623602;28;20130;-62
2022/02/20 15:47:25;;;;;;;859.30;571.15;;;;;;;9.80;82.99;99650.03;15643486;28;20041;-62
2022/02/20 15:54:59;;;;;;;692.57;584.40;;;;;;;10.00;82.45;99653.75;15635404;28;20049;-62
2022/02/20 16:02:32;;;;;;;1512.15;672.17;;;;;;;9.84;82.38;99623.06;15598234;28;20520;-61
2022/02/20 16:10:06;;;;;;;784.47;702.67;;;;;;;10.07;82.39;99626.91;15612895;28;20076;-62
2022/02/20 16:17:39;;;;;;;1751.97;851.38;;;;;;;9.97;81.62;99598.75;15627843;28;20280;-61
2022/02/20 16:25:14;;;;;;;973.35;592.25;;;;;;;10.35;80.00;99603.78;15625246;28;20044;-60
2022/02/20 16:32:47;;;;;;;1274.90;701.60;;;;;;;10.31;79.82;99584.16;15601040;28;20052;-60
2022/02/20 16:40:35;;;;;;;882.13;763.67;;;;;;;10.45;79.35;99580.97;15617360;28;20046;-59
2022/02/20 16:48:09;;;;;;;1836.00;850.78;;;;;;;10.20;80.49;99580.25;15607613;28;20066;-62
2022/02/20 16:55:45;;;;;;;870.00;611.30;;;;;;;10.28;80.54;99570.16;15616279;28;20088;-63
2022/02/20 17:03:18;;;;;;;1138.00;734.28;;;;;;;10.17;81.74;99560.66;15620666;28;20099;-63
2022/02/20 17:10:53;;;;;;;685.13;612.80;;;;;;;10.21;81.96;99553.19;15609510;28;20049;-62
2022/02/20 17:18:27;;;;;;;813.40;687.83;;;;;;;10.15;81.56;99549.06;15591772;28;20100;-63
2022/02/20 17:26:02;;;;;;;625.08;566.22;;;;;;;10.19;81.06;99530.44;15595915;28;20037;-63
2022/02/20 17:33:37;;;;;;;770.63;691.50;;;;;;;10.30;80.03;99523.19;15599148;28;20037;-61
2022/02/20 17:41:31;;;;;;;1129.97;606.55;;;;;;;10.32;79.31;99510.53;15621631;28;20125;-62
2022/02/20 17:49:04;;;;;;;1334.25;763.40;;;;;;;10.39;78.84;99521.84;15603662;28;20029;-60
2022/02/20 17:56:47;;;;;;;839.17;729.22;;;;;;;10.42;79.06;99492.44;15608835;28;20041;-61
2022/02/20 18:04:20;;;;;;;478.08;428.58;;;;;;;10.30;79.94;99495.31;15618957;28;20049;-65
2022/02/20 18:11:54;;;;;;;870.87;560.73;;;;;;;10.19;79.99;99494.22;15616667;28;20037;-63
2022/02/20 18:19:27;;;;;;;1926.00;737.83;;;;;;;9.99;81.00;99466.25;15616914;28;20087;-65
2022/02/20 18:27:01;;;;;;;572.70;511.97;;;;;;;10.32;80.05;99465.94;15616972;28;20502;-59
2022/02/20 18:34:33;;;;;;;1756.57;867.22;;;;;;;10.15;79.89;99460.69;15615930;28;20041;-60
2022/02/20 18:42:09;;;;;;;1999.90;999.90;;;;;;;10.48;78.90;99439.97;15563804;28;20045;-61
2022/02/20 18:49:42;;;;;;;1124.85;565.25;;;;;;;10.26;79.34;99428.31;15578938;28;20053;-61
2022/02/20 18:57:16;;;;;;;450.67;405.30;;;;;;;10.67;77.62;99414.91;15600677;28;20053;-63
2022/02/20 19:04:52;;;;;;;1316.50;593.75;;;;;;;10.34;77.97;99402.25;15559261;28;20038;-62
2022/02/20 19:12:33;;;;;;;670.33;558.25;;;;;;;10.57;77.67;99380.03;15605939;28;20045;-60
2022/02/20 19:20:11;;;;;;;590.90;442.52;;;;;;;10.47;77.93;99363.88;15600026;28;20138;-59
2022/02/20 19:27:47;;;;;;;1381.47;722.95;;;;;;;10.50;78.54;99348.38;15637394;28;20037;-60
2022/02/20 19:35:20;;;;;;;715.53;535.42;;;;;;;10.32;78.66;99351.63;15616921;28;20037;-61
2022/02/20 19:42:56;;;;;;;940.43;575.67;;;;;;;10.40;78.62;99345.00;15618913;28;20049;-64
2022/02/20 19:50:31;;;;;;;547.28;472.55;;;;;;;10.40;78.03;99314.31;15625202;28;20091;-58
2022/02/20 19:58:07;;;;;;;824.28;547.13;;;;;;;10.54;77.66;99287.94;15612849;28;20044;-59
2022/02/20 20:05:40;;;;;;;870.65;566.72;;;;;;;10.51;76.66;99264.34;15609853;28;20500;-59
2022/02/20 20:13:16;;;;;;;429.87;395.70;;;;;;;10.83;75.42;99262.19;15613214;28;20495;-61
2022/02/20 20:20:53;;;;;;;539.00;488.80;;;;;;;10.69;75.55;99236.81;15612554;28;20395;-62
2022/02/20 20:28:28;;;;;;;623.13;572.85;;;;;;;10.75;75.10;99218.63;15613069;28;20049;-59
2022/02/20 20:36:01;;;;;;;479.70;426.25;;;;;;;10.63;75.20;99193.69;15614116;28;20048;-63
2022/02/20 20:43:36;;;;;;;1611.78;873.60;;;;;;;10.68;75.11;99176.63;15635737;28;20099;-62
2022/02/20 20:51:09;;;;;;;779.28;521.95;;;;;;;10.57;75.20;99167.25;15648163;28;20534;-61
2022/02/20 20:58:43;;;;;;;570.90;518.37;;;;;;;10.75;75.11;99143.28;15596628;28;20079;-58
2022/02/20 21:06:20;;;;;;;630.40;572.50;;;;;;;10.59;76.09;99121.09;15636377;28;20144;-63
2022/02/20 21:14:02;;;;;;;692.38;634.25;;;;;;;10.85;75.60;99100.81;16145230;22;20049;-62
2022/02/20 21:21:36;;;;;;;987.63;749.58;;;;;;;10.41;77.37;99086.50;15654651;28;20111;-61
2022/02/20 21:29:12;;;;;;;1105.20;706.92;;;;;;;10.46;78.59;99069.47;15743223;22;20209;-61
2022/02/20 21:36:49;;;;;;;840.53;662.53;;;;;;;10.31;80.46;99057.25;15720456;28;20048;-61
2022/02/20 21:44:23;;;;;;;828.75;651.65;;;;;;;10.22;81.25;99028.03;15691453;28;20048;-61
2022/02/20 21:51:55;;;;;;;719.17;641.88;;;;;;;10.15;81.92;99009.16;15634561;28;20083;-60
2022/02/20 21:59:29;;;;;;;1999.90;882.28;;;;;;;9.99;82.35;98980.59;15719735;28;20053;-60
2022/02/20 22:07:01;;;;;;;1522.80;800.67;;;;;;;10.04;82.09;98958.00;15726663;28;20438;-60
2022/02/20 22:14:35;;;;;;;1965.03;861.20;;;;;;;9.99;82.91;98947.16;15689335;28;20064;-61
2022/02/20 22:22:08;;;;;;;1999.90;759.20;;;;;;;9.97;82.81;98914.09;15706847;28;20040;-61
2022/02/20 22:29:42;;;;;;;1082.63;810.77;;;;;;;10.08;82.91;98900.34;15688334;28;20076;-62
2022/02/20 22:37:19;;;;;;;1359.80;879.38;;;;;;;9.98;83.01;98893.41;15694917;28;20144;-61
2022/02/20 22:44:53;;;;;;;940.55;636.17;;;;;;;10.00;83.49;98865.97;15753594;28;20049;-62
2022/02/20 22:52:26;;;;;;;1998.65;929.03;;;;;;;9.89;83.93;98836.34;15711731;28;20244;-62
2022/02/20 23:00:00;;;;;;;1455.40;810.60;;;;;;;9.92;84.17;98828.06;15701790;28;20317;-61
2022/02/20 23:07:33;;;;;;;1446.63;758.17;;;;;;;9.86;84.39;98798.91;15736456;28;20158;-62
2022/02/20 23:15:08;;;;;;;1261.13;798.83;;;;;;;9.89;84.94;98780.63;15745626;28;20032;-58
2022/02/20 23:22:43;;;;;;;1999.90;868.85;;;;;;;9.75;85.41;98759.75;15738911;28;20056;-60
2022/02/20 23:30:17;;;;;;;1623.57;867.47;;;;;;;9.97;85.15;98740.56;15773175;28;20048;-61
2022/02/20 23:37:56;;;;;;;1999.90;914.72;;;;;;;9.74;85.62;98710.00;15732650;28;20052;-62
2022/02/20 23:45:30;;;;;;;1800.32;987.38;;;;;;;9.95;85.41;98684.44;15705576;28;20053;-60
2022/02/20 23:53:03;;;;;;;1716.70;942.42;;;;;;;9.89;85.53;98658.88;15722784;28;20047;-58
